Edmonton International Airport
CYEG : now visible

Airfield :











YOU CAN JOIN US ON...

 
LOGIN :

Register | Disclaimer

   EN    FR    IT 

 









Legend :    VFR   Marginal VFR   IFR   Intensive IFR   Very Intensive IFR
Visi :
Ceiling :
>= 8 km
>= 3000ft
5 to 8 km
1000 to 3000 ft
1500m to 5 km
500 to 1000 ft
800 to 1500m
200 to 500 ft
< 800m
< 200 ft
Symbols :   Thunderstorms  Fog  Heavy snow  Heavy precipitations  Wind > 20 kt






- Airport Elevation : 2373 ft
- IATA code : YEG


CYEG - Edmonton International

CURRENT METAR :
  • 280500Z 15011KT 20SM SCT180 BKN200 M22/M27 A2986 RMK AC3CI4 SLP191

EXPIRED METARs :
  • 280400Z 15009KT 20SM BKN200 M22/M26 A2990 RMK CI5 SLP206
  • 280300Z 15009KT 20SM FEW220 M23/M27 A2992 RMK CI2 SLP216
  • 280200Z 15008KT 20SM FEW220 M24/M27 A2995 RMK CI1 CI TR FROIN SLP228
  • 280100Z 15006KT 20SM FEW220 M23/M27 A2997 RMK CI1 CI TR SLP231

TAF TAF CYEG
Valid from the 28 at 03:00 until the 29 at 00:00 UTC


280240Z 2803/2824 15010KT P6SM SCT220
FM280900 15012KT P6SM SCT080 BKN200
FM281200 15012G22KT P6SM SCT080 BKN160
BECMG 2820/2822 12015KT RMK NXT FCST BY 280600Z
CZEG FIR / North America



MET'MAP, your aeronautical weather chart ! - Copyright ORBIFLY December 2007 - Disclaimer

ORBIFLY MET'MAP TEAM :

Programming & Development : Alexandra Zaïnal
Original concept : Baudouin d'Aumeries
Technical & hardware support : Manuel Goepfert
Assistance : Marc-Olivier Méhu




SOURCES & CREDITS :

   NOAA       Earth
Advisory